createdAt,value
2018-02-24T12:17:01.450Z,85.50
2018-02-24T12:19:28.512Z,86.20
2018-02-24T12:39:57.531Z,86.10
2018-02-24T12:42:42.711Z,85.80
2018-02-24T13:24:04.564Z,85.60
2018-02-24T13:26:33.398Z,86.20
2018-02-24T13:29:00.684Z,85.60
2018-02-24T14:10:28.841Z,87.80
2018-02-24T14:12:55.757Z,87.60
2018-02-24T14:15:29.788Z,87.10
2018-02-24T14:17:57.978Z,86.00
2018-02-24T14:20:25.135Z,86.10
2018-02-24T14:22:56.992Z,86.80
2018-02-24T14:53:49.528Z,90.20
2018-02-24T14:56:47.677Z,90.90
2018-02-24T14:59:14.741Z,89.90
2018-02-24T15:04:16.888Z,90.10
2018-02-24T15:13:09.570Z,90.40
2018-02-24T15:24:44.044Z,90.30
2018-02-24T15:27:14.275Z,90.50
2018-02-24T15:29:47.304Z,90.40
2018-02-24T15:35:23.936Z,90.30
2018-02-24T15:38:11.111Z,90.40
2018-02-24T15:40:39.068Z,90.40
2018-02-24T15:43:08.387Z,90.70
2018-02-24T15:45:55.704Z,90.60
2018-02-24T15:48:33.281Z,90.80
2018-02-24T15:51:01.028Z,90.90
2018-02-24T15:53:47.388Z,90.50
2018-02-24T15:59:30.613Z,90.60
2018-02-24T16:05:07.161Z,90.10
2018-02-24T16:08:00.788Z,90.40
2018-02-24T16:10:40.838Z,90.10
2018-02-24T16:16:11.459Z,89.90
2018-02-24T16:18:40.869Z,90.00
2018-02-24T16:24:07.613Z,88.80
2018-02-24T16:26:36.548Z,89.30
2018-02-24T16:29:03.672Z,88.80
2018-02-24T16:31:30.359Z,88.00
2018-02-24T16:33:57.566Z,88.20
2018-02-24T16:36:24.158Z,88.40
2018-02-24T16:42:00.885Z,88.50
2018-02-24T16:44:37.652Z,88.00
2018-02-24T16:47:07.810Z,88.50
2018-02-24T16:52:44.306Z,88.10
2018-02-24T16:55:15.154Z,87.40
2018-02-24T16:57:46.482Z,87.10
2018-02-24T17:00:13.874Z,87.10
2018-02-24T17:02:55.756Z,86.20
2018-02-24T17:05:23.707Z,87.50
2018-02-24T17:08:05.869Z,86.20
2018-02-24T17:10:32.758Z,86.20
2018-02-24T17:12:59.595Z,86.60
2018-02-24T17:15:31.560Z,87.00
2018-02-24T17:17:58.477Z,85.70
2018-02-24T17:20:25.077Z,86.80
2018-02-24T17:23:00.578Z,86.80
2018-02-24T17:25:33.577Z,86.70
2018-02-24T17:28:13.244Z,86.60
2018-02-24T17:30:40.207Z,86.60
2018-02-24T17:33:07.005Z,86.30
2018-02-24T17:35:33.694Z,86.40
2018-02-24T17:38:29.653Z,85.70
2018-02-24T17:40:58.664Z,85.00
2018-02-24T17:43:27.014Z,85.00
2018-02-24T17:46:03.765Z,84.00
2018-02-24T17:48:47.725Z,85.00
2018-02-24T17:51:15.804Z,85.10
2018-02-24T17:53:58.596Z,82.20
2018-02-24T17:56:32.222Z,81.80
2018-02-24T17:58:58.938Z,82.70
2018-02-24T18:08:05.106Z,81.60
2018-02-24T18:10:31.812Z,80.80
2018-02-24T18:12:59.670Z,80.80
2018-02-24T18:15:26.595Z,80.80
2018-02-24T18:17:53.219Z,81.10
2018-02-24T18:20:21.288Z,80.80
2018-02-24T18:22:48.258Z,80.30
2018-02-24T18:25:29.882Z,80.90
2018-02-24T18:27:56.531Z,81.70
2018-02-24T18:30:23.262Z,81.20
2018-02-24T18:32:50.083Z,82.30
2018-02-24T18:35:16.745Z,82.10
2018-02-24T18:37:43.907Z,82.30
2018-02-24T18:40:11.251Z,82.20
2018-02-24T18:42:39.196Z,82.20
2018-02-24T18:45:06.049Z,82.80
2018-02-24T18:47:33.317Z,83.50
2018-02-24T18:50:00.304Z,82.80
2018-02-24T18:52:32.153Z,83.60
2018-02-24T18:54:58.752Z,83.50
2018-02-24T18:57:26.853Z,83.50
2018-02-24T18:59:54.156Z,83.40
2018-02-24T19:02:21.322Z,83.50
2018-02-24T19:04:50.004Z,83.30
2018-02-24T19:07:16.627Z,83.90
2018-02-24T19:09:43.695Z,83.60
2018-02-24T19:12:11.142Z,84.20
2018-02-24T19:14:38.499Z,83.10
2018-02-24T19:17:05.282Z,83.00
2018-02-24T19:19:32.852Z,83.80
2018-02-24T19:21:59.512Z,83.90
2018-02-24T19:24:26.232Z,82.90
2018-02-24T19:26:53.019Z,83.90
2018-02-24T19:29:19.638Z,83.10
2018-02-24T19:31:46.958Z,83.60
2018-02-24T19:34:13.554Z,83.60
2018-02-24T19:36:40.178Z,83.50
2018-02-24T19:39:06.776Z,84.30
2018-02-24T19:41:33.407Z,84.30
2018-02-24T19:44:00.149Z,84.50
2018-02-24T19:46:27.520Z,85.60
2018-02-24T19:48:54.376Z,85.60
2018-02-24T19:51:25.182Z,85.80
2018-02-24T19:53:54.068Z,86.10
2018-02-24T19:56:20.756Z,86.10
2018-02-24T19:58:47.444Z,86.30
2018-02-24T20:01:14.797Z,86.50
2018-02-24T20:03:45.624Z,86.50
2018-02-24T20:06:12.294Z,87.20
2018-02-24T20:08:38.901Z,86.10
2018-02-24T20:11:05.609Z,86.20
2018-02-24T20:13:32.251Z,85.40
2018-02-24T20:15:59.051Z,85.20
2018-02-24T20:18:25.785Z,84.70
2018-02-24T20:20:52.416Z,84.40
2018-02-24T20:23:19.811Z,85.00
2018-02-24T20:25:46.442Z,85.00
2018-02-24T20:28:13.749Z,84.80
2018-02-24T20:30:40.355Z,84.80
2018-02-24T20:33:07.694Z,85.40
2018-02-24T20:35:34.287Z,85.40
2018-02-24T20:38:01.284Z,85.10
2018-02-24T20:40:27.883Z,85.90
2018-02-24T20:42:56.186Z,85.30
2018-02-24T20:45:22.773Z,85.30
2018-02-24T20:47:49.352Z,85.40
2018-02-24T20:50:15.935Z,85.40
2018-02-24T20:52:42.568Z,85.80
2018-02-24T20:55:09.932Z,85.30
2018-02-24T20:57:37.304Z,85.30
2018-02-24T21:00:04.632Z,85.60
2018-02-24T21:02:31.230Z,85.60
2018-02-24T21:04:58.562Z,85.80
2018-02-24T21:07:25.145Z,85.80
2018-02-24T21:09:58.253Z,85.60
2018-02-24T21:12:24.860Z,85.60
2018-02-24T21:14:51.524Z,85.70
2018-02-24T21:17:18.137Z,85.50
2018-02-24T21:19:50.334Z,85.40
2018-02-24T21:22:17.029Z,85.50
2018-02-24T21:24:44.932Z,86.00
2018-02-24T21:27:11.599Z,86.00
2018-02-24T21:29:38.746Z,86.00
2018-02-24T21:32:05.427Z,85.60
2018-02-24T21:34:32.076Z,85.90
2018-02-24T21:36:58.753Z,85.90
2018-02-24T21:39:25.310Z,86.00
2018-02-24T21:41:51.995Z,85.50
2018-02-24T21:44:18.660Z,85.60
2018-02-24T21:46:45.272Z,86.60
2018-02-24T21:49:11.876Z,85.80
2018-02-24T21:51:38.506Z,86.20
2018-02-24T21:54:05.233Z,85.80
2018-02-24T21:56:31.862Z,85.40
2018-02-24T21:58:59.233Z,86.40
2018-02-24T22:01:26.567Z,86.30
2018-02-24T22:03:53.181Z,85.90
2018-02-24T22:06:19.738Z,86.00
2018-02-24T22:08:46.385Z,86.50
2018-02-24T22:11:13.330Z,86.40
2018-02-24T22:13:39.912Z,86.40
2018-02-24T22:16:06.508Z,86.70
2018-02-24T22:18:33.885Z,86.00
2018-02-24T22:21:00.489Z,86.00
2018-02-24T22:23:27.085Z,86.70
2018-02-24T22:25:53.691Z,86.20
2018-02-24T22:28:20.289Z,86.10
2018-02-24T22:30:48.011Z,86.90
2018-02-24T22:33:14.603Z,86.90
2018-02-24T22:35:41.935Z,86.90
2018-02-24T22:38:08.528Z,86.80
2018-02-24T22:40:35.842Z,86.40
2018-02-24T22:43:02.453Z,86.30
2018-02-24T22:45:29.044Z,87.10
2018-02-24T22:48:01.669Z,86.90
2018-02-24T22:50:28.957Z,86.90
2018-02-24T22:52:55.565Z,87.00
2018-02-24T22:55:22.120Z,86.80
2018-02-24T22:57:48.686Z,86.50
2018-02-24T23:00:16.018Z,87.00
2018-02-24T23:02:42.622Z,87.00
2018-02-24T23:05:09.714Z,87.20
2018-02-24T23:07:36.306Z,87.90
2018-02-24T23:10:03.695Z,87.40
2018-02-24T23:12:30.275Z,87.30
2018-02-24T23:14:56.866Z,87.60
2018-02-24T23:17:23.457Z,88.00
2018-02-24T23:19:50.499Z,87.10
2018-02-24T23:22:17.075Z,87.50
2018-02-24T23:24:43.669Z,87.70
2018-02-24T23:27:11.015Z,88.10
2018-02-24T23:29:37.602Z,88.00
2018-02-24T23:32:04.156Z,87.70
2018-02-24T23:34:31.507Z,88.20
2018-02-24T23:36:58.840Z,87.90
2018-02-24T23:39:25.491Z,87.90
2018-02-24T23:41:52.085Z,88.90
2018-02-24T23:44:19.396Z,88.90
2018-02-24T23:46:46.004Z,88.80
2018-02-24T23:49:13.330Z,88.50
2018-02-24T23:51:39.931Z,88.50
2018-02-24T23:54:06.550Z,88.60
2018-02-24T23:56:33.141Z,88.70
2018-02-24T23:58:59.751Z,88.80
